CSV weather

Crossville Memorial Whitson Field
Crossville, Tennessee, United States

Public forecast

Using degrees Fahrenheit for public forecast. Weather courtesy of forecast.io.

Current aviation weather report (METAR) for Crossville Memorial Whitson Field

Retrieved 2019/10/22 01:53 UTC (14 minutes ago):

KCSV 220153Z AUTO VRB05KT 10SM BKN006 OVC009 16/15 A2991 RMK AO2 RAE04 CIG 004V008 SLP116 P0000 T01610150

Aviation forecast (TAF) for Crossville Memorial Whitson Field

Retrieved 2019-10-22 00:22 UTC (2 hours ago):

TAF KCSV 212320Z 2200/2224 18010G18KT 3SM -SHRA FEW006 OVC025 FM220100 22008KT 3SM -RA OVC010 FM220500 29007KT 4SM BR OVC005 FM221300 27010KT P6SM BKN035 FM221800 26012G19KT P6SM SKC